Time;durP1;ratioP1;P1;durP2;ratioP2;P2;SDS_P1;SDS_P2;PMS_P1;PMS_P2;Temp;Humidity;BMP_temperature;BMP_pressure;BME280_temperature;BME280_humidity;BME280_pressure;Samples;Min_cycle;Max_cycle;Signal;HPM_P1;HPM_P2
2022/05/09 00:02:23;;;;;;;22.65;3.17;;;;;;;;;;5014144;28;94921;-74
2022/05/09 00:04:49;;;;;;;11.82;2.95;;;;;;;;;;4995365;28;93810;-74
2022/05/09 00:07:15;;;;;;;12.10;3.30;;;;;;;;;;5012836;28;92583;-74
2022/05/09 00:09:42;;;;;;;17.30;3.42;;;;;;;;;;4994913;28;92916;-74
2022/05/09 00:12:09;;;;;;;19.73;3.63;;;;;;;;;;5012021;28;92994;-74
2022/05/09 00:14:35;;;;;;;12.77;3.83;;;;;;;;;;5012220;28;92573;-74
2022/05/09 00:17:01;;;;;;;11.23;3.47;;;;;;;;;;5012630;28;94143;-74
2022/05/09 00:19:27;;;;;;;15.57;3.35;;;;;;;;;;5013698;28;92752;-74
2022/05/09 00:21:54;;;;;;;9.95;3.08;;;;;;;;;;5013053;28;92453;-74
2022/05/09 00:24:21;;;;;;;18.73;3.63;;;;;;;;;;5009866;28;93178;-74
2022/05/09 00:26:48;;;;;;;10.52;3.22;;;;;;;;;;5011915;28;94966;-74
2022/05/09 00:29:15;;;;;;;17.00;3.17;;;;;;;;;;5011669;28;95710;-74
2022/05/09 00:31:43;;;;;;;20.20;4.60;;;;;;;;;;5013133;28;94425;-74
2022/05/09 00:34:10;;;;;;;21.17;4.35;;;;;;;;;;5014536;28;92412;-74
2022/05/09 00:36:37;;;;;;;16.00;3.60;;;;;;;;;;5014245;28;93198;-74
2022/05/09 00:39:04;;;;;;;21.60;3.35;;;;;;;;;;5012020;28;93220;-74
2022/05/09 00:41:37;;;;;;;13.63;3.53;;;;;;;;;;5013732;28;92403;-74
2022/05/09 00:44:06;;;;;;;14.25;3.15;;;;;;;;;;5009675;28;93177;-74
2022/05/09 00:46:33;;;;;;;15.40;3.63;;;;;;;;;;5014749;28;93511;-74
2022/05/09 00:49:04;;;;;;;12.68;2.97;;;;;;;;;;5012454;28;93139;-74
2022/05/09 00:51:31;;;;;;;14.63;3.90;;;;;;;;;;5013996;28;95801;-74
2022/05/09 00:53:58;;;;;;;16.10;3.10;;;;;;;;;;5017762;28;92488;-74
2022/05/09 00:56:29;;;;;;;14.02;3.35;;;;;;;;;;5017424;28;92993;-74
2022/05/09 00:58:58;;;;;;;15.98;3.40;;;;;;;;;;5020372;28;93286;-74
2022/05/09 01:01:24;;;;;;;10.35;3.35;;;;;;;;;;5018813;28;92893;-74
2022/05/09 01:04:00;;;;;;;17.02;3.65;;;;;;;;;;5018169;28;93221;-74
2022/05/09 01:06:27;;;;;;;13.63;3.63;;;;;;;;;;5020303;28;95712;-74
2022/05/09 01:08:53;;;;;;;15.20;3.40;;;;;;;;;;5022256;28;91692;-74
2022/05/09 01:11:21;;;;;;;12.30;3.50;;;;;;;;;;5019202;28;93231;-74
2022/05/09 01:14:08;;;;;;;16.48;3.28;;;;;;;;;;5019053;28;92453;-74
2022/05/09 01:16:34;;;;;;;16.17;3.38;;;;;;;;;;5016720;28;94852;-74
2022/05/09 01:19:06;;;;;;;9.55;3.35;;;;;;;;;;5017074;28;93872;-74
2022/05/09 01:21:37;;;;;;;9.45;3.00;;;;;;;;;;5018192;28;92397;-74
2022/05/09 01:24:03;;;;;;;;;;;;;;;;;;5016426;28;93005;-74
2022/05/09 01:26:29;;;;;;;11.38;3.30;;;;;;;;;;5019840;28;124243;-74
2022/05/09 01:28:59;;;;;;;15.98;3.50;;;;;;;;;;5022576;28;92959;-74
2022/05/09 01:31:26;;;;;;;13.05;3.58;;;;;;;;;;5018352;28;93150;-74
2022/05/09 01:33:54;;;;;;;15.75;3.65;;;;;;;;;;5019111;28;91862;-74
2022/05/09 01:36:27;;;;;;;15.35;3.60;;;;;;;;;;5018842;28;92655;-74
2022/05/09 01:39:02;;;;;;;24.15;3.95;;;;;;;;;;5019177;28;95953;-74
2022/05/09 01:41:29;;;;;;;13.45;3.28;;;;;;;;;;5000102;28;95054;-74
2022/05/09 01:43:55;;;;;;;14.10;3.65;;;;;;;;;;5017329;28;95575;-74
2022/05/09 01:46:23;;;;;;;18.48;4.00;;;;;;;;;;5016945;28;93364;-73
2022/05/09 01:51:35;;;;;;;12.18;3.25;;;;;;;;;;5015764;28;92575;-74
2022/05/09 01:54:01;;;;;;;13.02;3.20;;;;;;;;;;5016515;28;92660;-74
2022/05/09 01:56:29;;;;;;;12.57;2.83;;;;;;;;;;5018109;28;92907;-74
2022/05/09 01:58:56;;;;;;;12.07;3.20;;;;;;;;;;5018982;28;92370;-74
2022/05/09 02:01:25;;;;;;;18.92;4.22;;;;;;;;;;5019119;28;92548;-74
2022/05/09 02:03:52;;;;;;;16.20;3.85;;;;;;;;;;5013648;28;93230;-74
2022/05/09 02:06:20;;;;;;;16.55;3.78;;;;;;;;;;5013643;28;95882;-74
2022/05/09 02:08:46;;;;;;;10.98;2.92;;;;;;;;;;5014788;28;92897;-74
2022/05/09 02:11:13;;;;;;;13.02;3.55;;;;;;;;;;5013699;28;93318;-74
2022/05/09 02:13:39;;;;;;;12.32;3.00;;;;;;;;;;5018564;28;93656;-74
2022/05/09 02:16:05;;;;;;;20.60;3.38;;;;;;;;;;5014300;28;93297;-74
2022/05/09 02:18:33;;;;;;;14.25;3.20;;;;;;;;;;5015174;28;92594;-74
2022/05/09 02:20:59;;;;;;;13.77;2.80;;;;;;;;;;5014178;28;92576;-74
2022/05/09 02:23:25;;;;;;;6.03;2.60;;;;;;;;;;5015288;28;93005;-74
2022/05/09 02:25:52;;;;;;;10.27;2.90;;;;;;;;;;4997106;28;92759;-74
2022/05/09 02:28:18;;;;;;;10.95;2.95;;;;;;;;;;5005690;28;92493;-74
2022/05/09 02:30:44;;;;;;;9.68;3.15;;;;;;;;;;5013500;28;94938;-74
2022/05/09 02:33:10;;;;;;;11.30;2.95;;;;;;;;;;5012649;28;93499;-74
2022/05/09 02:35:38;;;;;;;13.07;3.58;;;;;;;;;;5018140;28;92585;-74
2022/05/09 02:38:04;;;;;;;10.60;3.00;;;;;;;;;;5013760;28;93782;-74
2022/05/09 02:40:33;;;;;;;12.45;3.53;;;;;;;;;;5013226;28;92999;-74
2022/05/09 02:42:59;;;;;;;17.15;3.63;;;;;;;;;;4997647;28;93642;-74
2022/05/09 02:45:26;;;;;;;13.98;3.22;;;;;;;;;;5015251;28;93197;-74
2022/05/09 02:47:53;;;;;;;10.57;3.35;;;;;;;;;;5014935;28;91783;-74
2022/05/09 02:50:21;;;;;;;9.05;3.22;;;;;;;;;;5014003;28;93201;-74
2022/05/09 02:52:48;;;;;;;14.60;3.30;;;;;;;;;;5014603;28;94510;-74
2022/05/09 02:55:14;;;;;;;7.65;2.85;;;;;;;;;;4995354;28;95467;-74
2022/05/09 02:57:41;;;;;;;12.68;3.40;;;;;;;;;;5017721;28;95475;-74
2022/05/09 03:00:18;;;;;;;11.38;3.10;;;;;;;;;;4996279;28;93245;-74
2022/05/09 03:04:38;;;;;;;15.40;3.47;;;;;;;;;;5005764;28;93102;-74
2022/05/09 03:05:33;;;;;;;13.52;3.10;;;;;;;;;;5011353;28;93636;-73
2022/05/09 03:08:01;;;;;;;12.02;3.80;;;;;;;;;;5011847;28;94237;-74
2022/05/09 03:10:28;;;;;;;11.25;3.70;;;;;;;;;;5012540;28;96279;-73
2022/05/09 03:12:59;;;;;;;11.15;3.20;;;;;;;;;;4996392;28;92667;-73
2022/05/09 03:15:26;;;;;;;9.13;2.92;;;;;;;;;;5013856;28;92728;-73
2022/05/09 03:17:52;;;;;;;8.32;3.10;;;;;;;;;;5016942;28;93306;-74
2022/05/09 03:20:19;;;;;;;8.27;2.70;;;;;;;;;;5010283;28;94987;-74
2022/05/09 03:22:45;;;;;;;8.60;2.90;;;;;;;;;;5014030;28;96693;-73
2022/05/09 03:25:11;;;;;;;12.50;3.47;;;;;;;;;;5013975;28;93254;-73
2022/05/09 03:27:38;;;;;;;17.85;3.25;;;;;;;;;;5014239;28;92427;-74
2022/05/09 03:30:06;;;;;;;9.77;2.90;;;;;;;;;;5014612;28;92834;-73
2022/05/09 03:32:34;;;;;;;10.48;3.15;;;;;;;;;;5012833;28;93559;-74
2022/05/09 03:35:00;;;;;;;7.50;2.67;;;;;;;;;;5013900;28;92595;-74
2022/05/09 03:37:26;;;;;;;9.57;3.08;;;;;;;;;;5014353;28;93197;-73
2022/05/09 03:39:52;;;;;;;9.43;3.20;;;;;;;;;;5013469;28;93489;-73
2022/05/09 03:42:19;;;;;;;15.70;3.97;;;;;;;;;;5014251;28;93167;-74
2022/05/09 03:44:46;;;;;;;10.43;3.10;;;;;;;;;;5011881;28;95874;-73
2022/05/09 03:47:12;;;;;;;8.75;3.08;;;;;;;;;;5012149;28;93556;-74
2022/05/09 03:49:38;;;;;;;16.00;3.58;;;;;;;;;;5015097;28;93193;-73
2022/05/09 03:52:04;;;;;;;5.88;3.35;;;;;;;;;;5013714;28;93193;-74
2022/05/09 03:54:31;;;;;;;13.82;3.50;;;;;;;;;;5012726;28;92527;-74
2022/05/09 03:56:57;;;;;;;7.65;3.13;;;;;;;;;;5013210;28;93985;-73
2022/05/09 03:59:23;;;;;;;14.65;3.90;;;;;;;;;;5012491;28;93195;-74
2022/05/09 04:01:50;;;;;;;16.65;4.07;;;;;;;;;;5017230;28;91744;-73
2022/05/09 04:04:16;;;;;;;8.80;3.03;;;;;;;;;;5012795;28;93771;-74
2022/05/09 04:06:42;;;;;;;17.02;4.22;;;;;;;;;;5012512;28;94318;-73
2022/05/09 04:09:09;;;;;;;9.80;3.90;;;;;;;;;;5013032;28;94723;-74
2022/05/09 04:11:35;;;;;;;9.57;3.78;;;;;;;;;;5013624;28;94100;-74
2022/05/09 04:14:01;;;;;;;13.40;3.88;;;;;;;;;;5012546;28;94154;-74
2022/05/09 04:19:12;;;;;;;12.82;3.67;;;;;;;;;;5013877;28;93862;-74
2022/05/09 04:21:39;;;;;;;11.95;3.75;;;;;;;;;;5011834;28;93989;-74
2022/05/09 04:24:05;;;;;;;12.00;3.08;;;;;;;;;;5013583;28;93391;-74
2022/05/09 04:26:31;;;;;;;20.75;3.92;;;;;;;;;;5011983;28;91749;-74
2022/05/09 04:28:58;;;;;;;11.75;3.78;;;;;;;;;;5013308;28;92389;-74
2022/05/09 04:31:26;;;;;;;8.85;3.63;;;;;;;;;;5012383;28;93312;-74
2022/05/09 04:33:52;;;;;;;14.23;3.05;;;;;;;;;;5010924;28;96340;-74
2022/05/09 04:36:19;;;;;;;7.85;3.35;;;;;;;;;;5011909;28;95618;-74
2022/05/09 04:38:49;;;;;;;14.57;3.58;;;;;;;;;;5012430;28;94530;-74
2022/05/09 04:41:17;;;;;;;18.70;3.75;;;;;;;;;;5011423;28;93918;-74
2022/05/09 04:43:43;;;;;;;8.50;3.03;;;;;;;;;;5012142;28;94351;-74
2022/05/09 04:46:10;;;;;;;16.42;3.85;;;;;;;;;;5014888;28;93506;-74
2022/05/09 04:48:37;;;;;;;7.88;3.72;;;;;;;;;;5012546;28;93702;-74
2022/05/09 04:51:03;;;;;;;15.88;3.55;;;;;;;;;;5013177;28;93275;-74
2022/05/09 04:53:29;;;;;;;9.15;3.35;;;;;;;;;;5012523;28;92431;-74
2022/05/09 04:55:56;;;;;;;12.05;3.28;;;;;;;;;;5012025;28;92402;-74
2022/05/09 04:58:23;;;;;;;16.45;3.90;;;;;;;;;;5010767;28;96011;-74
2022/05/09 05:00:49;;;;;;;8.45;3.15;;;;;;;;;;5011832;28;92405;-74
2022/05/09 05:03:15;;;;;;;11.48;3.65;;;;;;;;;;5012763;28;92946;-74
2022/05/09 05:05:42;;;;;;;12.25;3.58;;;;;;;;;;5012191;28;93424;-74
2022/05/09 05:08:11;;;;;;;9.30;3.63;;;;;;;;;;5015268;28;93928;-74
2022/05/09 05:10:38;;;;;;;9.98;3.42;;;;;;;;;;5009145;28;97666;-74
2022/05/09 05:13:04;;;;;;;12.48;4.45;;;;;;;;;;5012498;28;92869;-74
2022/05/09 05:15:31;;;;;;;13.23;4.20;;;;;;;;;;5012034;28;94318;-74
2022/05/09 05:17:57;;;;;;;15.65;5.03;;;;;;;;;;5011756;28;93625;-74
2022/05/09 05:20:24;;;;;;;16.40;4.43;;;;;;;;;;5012531;28;92426;-75
2022/05/09 05:22:50;;;;;;;14.50;4.03;;;;;;;;;;5010774;28;96125;-75
2022/05/09 05:25:22;;;;;;;13.68;4.00;;;;;;;;;;4994374;28;95573;-75
2022/05/09 05:27:48;;;;;;;13.38;3.92;;;;;;;;;;5014430;28;92441;-75
2022/05/09 05:30:15;;;;;;;13.45;4.95;;;;;;;;;;5011554;28;93500;-75
2022/05/09 05:32:42;;;;;;;20.40;4.82;;;;;;;;;;5012452;28;92615;-75
2022/05/09 05:35:10;;;;;;;18.67;4.53;;;;;;;;;;5012046;28;93320;-74
2022/05/09 05:37:36;;;;;;;18.40;4.80;;;;;;;;;;5012531;28;93565;-74
2022/05/09 05:40:03;;;;;;;16.33;4.97;;;;;;;;;;5016426;28;93481;-74
2022/05/09 05:42:30;;;;;;;16.05;4.85;;;;;;;;;;4998491;28;92485;-74
2022/05/09 05:44:56;;;;;;;16.10;4.55;;;;;;;;;;5015039;28;93641;-74
2022/05/09 05:47:23;;;;;;;25.30;5.07;;;;;;;;;;5014201;28;94871;-74
2022/05/09 05:49:49;;;;;;;15.48;4.28;;;;;;;;;;5018731;28;95608;-74
2022/05/09 05:52:16;;;;;;;22.52;4.93;;;;;;;;;;5015394;28;92507;-74
2022/05/09 05:54:44;;;;;;;25.80;5.40;;;;;;;;;;5014771;28;93310;-74
2022/05/09 05:57:25;;;;;;;26.27;5.72;;;;;;;;;;5016056;28;92391;-74
2022/05/09 05:59:53;;;;;;;27.98;5.18;;;;;;;;;;5015059;28;92475;-74
2022/05/09 06:02:19;;;;;;;22.58;5.25;;;;;;;;;;5015279;28;93326;-74
2022/05/09 06:04:46;;;;;;;19.30;4.78;;;;;;;;;;5015429;28;92706;-75
2022/05/09 06:07:13;;;;;;;21.38;5.00;;;;;;;;;;5013514;28;93992;-74
2022/05/09 06:09:40;;;;;;;30.60;5.88;;;;;;;;;;5015460;28;93180;-74
2022/05/09 06:12:06;;;;;;;29.52;5.35;;;;;;;;;;5016629;28;95765;-73
2022/05/09 06:14:33;;;;;;;18.20;5.40;;;;;;;;;;5002280;28;95151;-73
2022/05/09 06:16:59;;;;;;;19.73;5.22;;;;;;;;;;5013711;28;93775;-74
2022/05/09 06:19:26;;;;;;;26.60;5.45;;;;;;;;;;5010039;28;92543;-73
2022/05/09 06:21:52;;;;;;;24.92;5.65;;;;;;;;;;5015868;28;93011;-74
2022/05/09 06:24:18;;;;;;;28.05;6.03;;;;;;;;;;5014063;28;93489;-74
2022/05/09 06:26:45;;;;;;;20.58;5.53;;;;;;;;;;5015949;28;92473;-73
2022/05/09 06:29:11;;;;;;;23.52;5.57;;;;;;;;;;5015311;28;93183;-75
2022/05/09 06:31:38;;;;;;;30.25;6.13;;;;;;;;;;5015447;28;93252;-75
2022/05/09 06:34:05;;;;;;;13.77;5.40;;;;;;;;;;5017386;28;92493;-73
2022/05/09 06:36:32;;;;;;;32.30;6.47;;;;;;;;;;5014585;28;96573;-74
2022/05/09 06:38:58;;;;;;;28.55;5.80;;;;;;;;;;5015620;28;93869;-74
2022/05/09 06:41:24;;;;;;;29.35;5.60;;;;;;;;;;5016530;28;93240;-72
2022/05/09 06:43:51;;;;;;;25.58;6.07;;;;;;;;;;5014163;28;93506;-75
2022/05/09 06:46:17;;;;;;;24.30;5.10;;;;;;;;;;5012936;28;92479;-75
2022/05/09 06:48:43;;;;;;;30.88;5.55;;;;;;;;;;5014396;28;96157;-74
2022/05/09 06:51:10;;;;;;;17.65;4.57;;;;;;;;;;5013028;28;93454;-75
2022/05/09 06:53:36;;;;;;;18.10;5.03;;;;;;;;;;5015509;28;93110;-75
2022/05/09 06:56:03;;;;;;;24.30;5.28;;;;;;;;;;5018658;28;92401;-73
2022/05/09 06:58:29;;;;;;;25.63;5.47;;;;;;;;;;5006572;28;94116;-72
2022/05/09 07:00:56;;;;;;;25.25;6.18;;;;;;;;;;5012090;28;95053;-74
2022/05/09 07:03:22;;;;;;;18.40;5.30;;;;;;;;;;5011672;28;93374;-78
2022/05/09 07:05:51;;;;;;;17.50;5.53;;;;;;;;;;5008998;28;93991;-75
2022/05/09 07:08:19;;;;;;;20.88;4.55;;;;;;;;;;4994861;28;95416;-73
2022/05/09 07:10:46;;;;;;;20.00;5.00;;;;;;;;;;5014485;28;94737;-73
2022/05/09 07:13:27;;;;;;;24.77;5.50;;;;;;;;;;5014668;28;92547;-74
2022/05/09 07:15:57;;;;;;;22.95;5.82;;;;;;;;;;5015306;28;93333;-73
2022/05/09 07:18:25;;;;;;;22.77;4.90;;;;;;;;;;5018586;28;93939;-73
2022/05/09 07:20:52;;;;;;;31.88;5.63;;;;;;;;;;5014433;28;92691;-73
2022/05/09 07:23:18;;;;;;;22.83;5.40;;;;;;;;;;5014691;28;93453;-73
2022/05/09 07:25:44;;;;;;;17.75;5.85;;;;;;;;;;5011053;28;94963;-73
2022/05/09 07:28:12;;;;;;;26.20;6.22;;;;;;;;;;5013368;28;95376;-74
2022/05/09 07:30:38;;;;;;;22.40;5.07;;;;;;;;;;5013806;28;93362;-75
2022/05/09 07:33:05;;;;;;;27.05;5.57;;;;;;;;;;5013283;28;92601;-72
2022/05/09 07:35:32;;;;;;;24.63;5.30;;;;;;;;;;5013571;28;93460;-74
2022/05/09 07:37:58;;;;;;;18.75;5.00;;;;;;;;;;5014287;28;93084;-74
2022/05/09 07:40:31;;;;;;;24.80;5.63;;;;;;;;;;4998393;28;93839;-73
2022/05/09 07:42:58;;;;;;;23.38;5.60;;;;;;;;;;5013117;28;92746;-74
2022/05/09 07:45:25;;;;;;;25.10;4.82;;;;;;;;;;4993821;28;92574;-73
2022/05/09 07:47:51;;;;;;;26.67;6.32;;;;;;;;;;5013890;28;93192;-74
2022/05/09 07:50:18;;;;;;;19.08;5.25;;;;;;;;;;5011924;28;95909;-73
2022/05/09 07:52:44;;;;;;;18.23;5.18;;;;;;;;;;5008810;28;93298;-74
2022/05/09 07:55:11;;;;;;;15.77;5.05;;;;;;;;;;5013206;28;93120;-74
2022/05/09 07:57:38;;;;;;;23.35;5.20;;;;;;;;;;5012428;28;93449;-74
2022/05/09 08:00:05;;;;;;;22.63;6.13;;;;;;;;;;5014740;28;92859;-74
2022/05/09 08:02:33;;;;;;;23.65;5.35;;;;;;;;;;4995506;28;93991;-75
2022/05/09 08:05:00;;;;;;;17.90;4.72;;;;;;;;;;5008833;28;93295;-75
2022/05/09 08:07:26;;;;;;;31.15;5.05;;;;;;;;;;5009667;28;96112;-74
2022/05/09 08:09:52;;;;;;;15.93;4.20;;;;;;;;;;5010097;28;93164;-74
2022/05/09 08:12:19;;;;;;;20.58;4.45;;;;;;;;;;5010245;28;93170;-74
2022/05/09 08:14:45;;;;;;;17.95;4.47;;;;;;;;;;5010204;28;94899;-74
2022/05/09 08:17:11;;;;;;;24.42;4.72;;;;;;;;;;5010112;28;93209;-74
2022/05/09 08:19:38;;;;;;;22.67;4.88;;;;;;;;;;5009943;28;92750;-74
2022/05/09 08:22:06;;;;;;;25.73;5.45;;;;;;;;;;5013055;28;93200;-73
2022/05/09 08:24:32;;;;;;;19.10;4.45;;;;;;;;;;5013262;28;92432;-73
2022/05/09 08:26:58;;;;;;;16.00;4.45;;;;;;;;;;5012966;28;93976;-74
2022/05/09 08:29:25;;;;;;;21.73;4.40;;;;;;;;;;5014436;28;94542;-74
2022/05/09 08:31:51;;;;;;;19.33;5.15;;;;;;;;;;5013192;28;92149;-74
2022/05/09 08:34:17;;;;;;;14.95;4.13;;;;;;;;;;5013094;28;92436;-74
2022/05/09 08:36:48;;;;;;;16.00;4.55;;;;;;;;;;5012708;28;93486;-75
2022/05/09 08:39:14;;;;;;;;;;;;;;;;;;5009708;28;94885;-73
2022/05/09 08:41:55;;;;;;;21.38;4.32;;;;;;;;;;5011816;28;126000;-74
2022/05/09 08:44:44;;;;;;;20.48;4.97;;;;;;;;;;5014898;28;94087;-73
2022/05/09 08:47:17;;;;;;;16.33;4.57;;;;;;;;;;5008179;28;93236;-73
2022/05/09 08:49:55;;;;;;;13.93;4.03;;;;;;;;;;5007956;28;93612;-73
2022/05/09 08:52:26;;;;;;;12.65;4.07;;;;;;;;;;5012247;28;92447;-73
2022/05/09 08:54:54;;;;;;;19.85;4.25;;;;;;;;;;5011089;28;93518;-73
2022/05/09 08:57:22;;;;;;;12.25;4.70;;;;;;;;;;5013728;28;92696;-74
2022/05/09 08:59:55;;;;;;;17.52;4.03;;;;;;;;;;5012275;28;92479;-73
2022/05/09 09:02:25;;;;;;;20.95;5.13;;;;;;;;;;5012816;28;93357;-74
2022/05/09 09:04:55;;;;;;;19.95;3.85;;;;;;;;;;5010691;28;95876;-73
2022/05/09 09:07:28;;;;;;;21.08;4.90;;;;;;;;;;5017776;28;92435;-74
2022/05/09 09:09:55;;;;;;;12.82;3.78;;;;;;;;;;5010979;28;95539;-73
2022/05/09 09:12:31;;;;;;;10.05;3.15;;;;;;;;;;5014339;28;92425;-73
2022/05/09 09:15:04;;;;;;;12.43;4.43;;;;;;;;;;5016818;28;92358;-75
2022/05/09 09:17:36;;;;;;;9.43;3.08;;;;;;;;;;4998202;28;93520;-74
2022/05/09 09:20:18;;;;;;;6.53;3.42;;;;;;;;;;5016054;28;92462;-74
2022/05/09 09:22:50;;;;;;;18.65;3.85;;;;;;;;;;5015128;28;93180;-73
2022/05/09 09:25:17;;;;;;;26.02;4.15;;;;;;;;;;5011473;28;94504;-73
2022/05/09 09:27:43;;;;;;;15.60;3.78;;;;;;;;;;4996214;28;92459;-74
2022/05/09 09:30:11;;;;;;;10.32;2.47;;;;;;;;;;5009898;28;95079;-73
2022/05/09 09:32:42;;;;;;;11.80;3.10;;;;;;;;;;5015364;28;94807;-72
2022/05/09 09:35:08;;;;;;;;;;;;;;;;;;5017707;28;93084;-73
2022/05/09 09:37:52;;;;;;;12.15;3.78;;;;;;;;;;5017364;28;122266;-73
2022/05/09 09:40:18;;;;;;;19.77;4.07;;;;;;;;;;5016779;28;92451;-73
2022/05/09 09:42:44;;;;;;;16.55;3.92;;;;;;;;;;5015316;28;93725;-73
2022/05/09 09:45:18;;;;;;;11.48;3.35;;;;;;;;;;5015339;28;93431;-73
2022/05/09 09:47:44;;;;;;;14.23;3.60;;;;;;;;;;5016031;28;91735;-73
2022/05/09 09:50:25;;;;;;;17.75;3.67;;;;;;;;;;5016006;28;93796;-74
2022/05/09 09:52:53;;;;;;;15.85;3.80;;;;;;;;;;5012639;28;92496;-73
2022/05/09 09:55:22;;;;;;;16.67;4.20;;;;;;;;;;5011375;28;94857;-73
2022/05/09 09:57:48;;;;;;;14.57;4.60;;;;;;;;;;5011126;28;93424;-73
2022/05/09 10:00:31;;;;;;;11.20;3.92;;;;;;;;;;5009685;28;92502;-74
2022/05/09 10:03:15;;;;;;;14.73;3.70;;;;;;;;;;5007666;28;93397;-73
2022/05/09 10:05:44;;;;;;;9.95;3.25;;;;;;;;;;5012846;28;94988;-73
2022/05/09 10:08:22;;;;;;;13.43;4.07;;;;;;;;;;5014756;28;92520;-73
2022/05/09 10:10:59;;;;;;;12.02;3.50;;;;;;;;;;5011722;28;94344;-74
2022/05/09 10:13:33;;;;;;;13.82;4.18;;;;;;;;;;5019629;28;92469;-73
2022/05/09 10:16:11;;;;;;;18.08;3.40;;;;;;;;;;5014715;28;92373;-74
2022/05/09 10:18:38;;;;;;;13.05;3.55;;;;;;;;;;5015795;28;92370;-74
2022/05/09 10:24:47;;;;;;;9.65;3.70;;;;;;;;;;5015058;28;94941;-75
2022/05/09 10:27:22;;;;;;;14.73;3.78;;;;;;;;;;4969264;28;93630;-74
2022/05/09 10:29:55;;;;;;;13.75;3.83;;;;;;;;;;4974015;28;92526;-74
2022/05/09 10:32:30;;;;;;;12.43;3.40;;;;;;;;;;4972993;28;93203;-74
2022/05/09 10:34:57;;;;;;;9.40;3.33;;;;;;;;;;4954542;28;93300;-75
2022/05/09 10:37:29;;;;;;;12.65;4.05;;;;;;;;;;4971252;28;92559;-76
2022/05/09 10:40:01;;;;;;;13.43;3.55;;;;;;;;;;4972746;28;92861;-73
2022/05/09 10:42:34;;;;;;;13.60;3.65;;;;;;;;;;4973114;28;92595;-74
2022/05/09 10:45:04;;;;;;;13.98;3.83;;;;;;;;;;4974376;28;94226;-75
2022/05/09 10:47:42;;;;;;;14.18;3.63;;;;;;;;;;4955718;28;95473;-74
2022/05/09 10:50:13;;;;;;;12.10;3.83;;;;;;;;;;4974127;28;92465;-75
2022/05/09 10:52:44;;;;;;;17.30;3.53;;;;;;;;;;4972701;28;93342;-74
2022/05/09 10:55:11;;;;;;;13.00;3.40;;;;;;;;;;4974098;28;94423;-74
2022/05/09 10:57:42;;;;;;;12.82;3.25;;;;;;;;;;4970709;28;93237;-74
2022/05/09 11:00:11;;;;;;;10.57;3.13;;;;;;;;;;4978805;28;92757;-73
2022/05/09 11:02:42;;;;;;;15.10;3.67;;;;;;;;;;5014955;28;92542;-76
2022/05/09 11:05:08;;;;;;;15.13;2.97;;;;;;;;;;5015525;28;93309;-74
2022/05/09 11:07:46;;;;;;;13.05;2.97;;;;;;;;;;5016588;27;93535;-74
2022/05/09 11:10:23;;;;;;;23.88;3.92;;;;;;;;;;5015885;28;92433;-73
2022/05/09 11:13:06;;;;;;;9.52;2.88;;;;;;;;;;5013371;28;95033;-74
2022/05/09 11:15:45;;;;;;;13.15;3.40;;;;;;;;;;4986937;28;96397;-74
2022/05/09 11:18:34;;;;;;;15.98;3.67;;;;;;;;;;5016284;28;92393;-74
2022/05/09 11:21:06;;;;;;;13.35;3.33;;;;;;;;;;5006900;28;93172;-74
2022/05/09 11:23:46;;;;;;;16.00;3.53;;;;;;;;;;5017230;28;93477;-73
2022/05/09 11:26:12;;;;;;;;;;;;;;;;;;4998361;28;96134;-73
2022/05/09 11:28:46;;;;;;;11.45;2.85;;;;;;;;;;5016385;28;123444;-73
2022/05/09 11:31:22;;;;;;;9.23;2.90;;;;;;;;;;5014293;28;91799;-71
2022/05/09 11:33:56;;;;;;;8.70;3.20;;;;;;;;;;5013170;28;92619;-74
2022/05/09 11:36:29;;;;;;;13.13;2.83;;;;;;;;;;5015068;28;93894;-75
2022/05/09 11:39:07;;;;;;;13.65;3.25;;;;;;;;;;5011187;28;94982;-74
2022/05/09 11:41:38;;;;;;;16.63;3.08;;;;;;;;;;5013951;28;95774;-75
2022/05/09 11:44:09;;;;;;;9.93;2.67;;;;;;;;;;5014360;28;93538;-75
2022/05/09 11:46:42;;;;;;;6.78;2.20;;;;;;;;;;5017304;28;92837;-72
2022/05/09 11:49:14;;;;;;;15.95;2.45;;;;;;;;;;5014919;28;93786;-75
2022/05/09 11:51:46;;;;;;;7.85;2.05;;;;;;;;;;4996422;28;92375;-73
2022/05/09 11:54:16;;;;;;;7.13;2.78;;;;;;;;;;5014069;28;93876;-72
2022/05/09 11:56:43;;;;;;;;;;;;;;;;;;5015764;28;92760;-73
2022/05/09 11:59:14;;;;;;;7.65;2.13;;;;;;;;;;4997746;28;118487;-72
2022/05/09 12:02:03;;;;;;;8.77;2.53;;;;;;;;;;4997789;28;93274;-72
2022/05/09 12:04:34;;;;;;;8.32;2.80;;;;;;;;;;5005979;28;95788;-72
2022/05/09 12:07:01;;;;;;;9.55;3.13;;;;;;;;;;5015200;28;92537;-71
2022/05/09 12:09:46;;;;;;;15.65;3.10;;;;;;;;;;5014877;28;95648;-74
2022/05/09 12:12:33;;;;;;;8.65;2.60;;;;;;;;;;5014355;28;92536;-74
2022/05/09 12:15:03;;;;;;;21.45;3.90;;;;;;;;;;5012898;28;93105;-74
2022/05/09 12:17:35;;;;;;;9.90;3.20;;;;;;;;;;5013876;28;93490;-73
2022/05/09 12:20:06;;;;;;;11.10;2.70;;;;;;;;;;5014778;28;92512;-73
2022/05/09 12:22:33;;;;;;;16.92;3.70;;;;;;;;;;5012281;28;93153;-72
2022/05/09 12:25:00;;;;;;;14.68;3.13;;;;;;;;;;5004838;28;94860;-73
2022/05/09 12:27:39;;;;;;;10.93;2.80;;;;;;;;;;4998940;28;92450;-75
2022/05/09 12:30:14;;;;;;;10.60;3.00;;;;;;;;;;5015462;28;94910;-73
2022/05/09 12:32:43;;;;;;;44.50;3.70;;;;;;;;;;5007253;28;92727;-73
2022/05/09 12:35:11;;;;;;;7.60;2.70;;;;;;;;;;5011411;28;94291;-75
2022/05/09 12:37:52;;;;;;;6.88;2.58;;;;;;;;;;5014213;28;93812;-74
2022/05/09 12:40:20;;;;;;;11.57;3.30;;;;;;;;;;5010008;28;93792;-74
2022/05/09 12:42:48;;;;;;;12.43;3.55;;;;;;;;;;5013352;28;93231;-74
2022/05/09 12:45:16;;;;;;;15.68;3.78;;;;;;;;;;5014102;28;93481;-73
2022/05/09 12:47:43;;;;;;;9.57;3.30;;;;;;;;;;5005233;28;92334;-73
2022/05/09 12:50:09;;;;;;;6.90;3.45;;;;;;;;;;5011775;28;92551;-73
2022/05/09 12:52:38;;;;;;;9.77;3.08;;;;;;;;;;5015698;28;93222;-73
2022/05/09 12:57:50;;;;;;;11.77;3.35;;;;;;;;;;5008654;28;93557;-75
2022/05/09 13:00:24;;;;;;;11.05;3.30;;;;;;;;;;5002885;28;92505;-73
2022/05/09 13:03:10;;;;;;;12.20;3.53;;;;;;;;;;5013519;28;93008;-73
2022/05/09 13:05:41;;;;;;;10.80;3.65;;;;;;;;;;5011994;28;93423;-74
2022/05/09 13:08:08;;;;;;;20.73;3.58;;;;;;;;;;5013094;28;92611;-73
2022/05/09 13:10:54;;;;;;;8.88;3.78;;;;;;;;;;5013966;28;95881;-73
2022/05/09 13:13:26;;;;;;;10.70;3.47;;;;;;;;;;5013714;28;92903;-73
2022/05/09 13:15:52;;;;;;;14.27;4.75;;;;;;;;;;5015218;28;92619;-74
2022/05/09 13:18:22;;;;;;;16.77;5.07;;;;;;;;;;5006288;28;93694;-72
2022/05/09 13:20:50;;;;;;;11.45;4.07;;;;;;;;;;5012110;28;95018;-73
2022/05/09 13:23:23;;;;;;;13.88;4.55;;;;;;;;;;5013921;28;95864;-73
2022/05/09 13:25:51;;;;;;;10.85;4.00;;;;;;;;;;5006197;28;92452;-73
2022/05/09 13:28:20;;;;;;;13.57;4.10;;;;;;;;;;5012130;28;92542;-73
2022/05/09 13:30:47;;;;;;;12.68;4.05;;;;;;;;;;5013626;28;92933;-74
2022/05/09 13:33:15;;;;;;;13.82;4.25;;;;;;;;;;5013735;28;93196;-74
2022/05/09 13:35:46;;;;;;;9.77;3.95;;;;;;;;;;5011048;28;92510;-74
2022/05/09 13:38:17;;;;;;;14.15;3.92;;;;;;;;;;5016885;28;92951;-74
2022/05/09 13:40:43;;;;;;;14.30;4.20;;;;;;;;;;5010245;28;92606;-74
2022/05/09 13:43:12;;;;;;;15.30;4.03;;;;;;;;;;5010652;28;92963;-74
2022/05/09 13:45:39;;;;;;;10.75;3.55;;;;;;;;;;5005678;28;95874;-74
2022/05/09 13:48:06;;;;;;;12.20;3.42;;;;;;;;;;5008324;28;93280;-74
2022/05/09 13:50:39;;;;;;;9.45;3.70;;;;;;;;;;4993519;28;93036;-74
2022/05/09 13:53:07;;;;;;;8.05;3.30;;;;;;;;;;5013291;28;93319;-74
2022/05/09 13:55:35;;;;;;;9.60;3.60;;;;;;;;;;5010859;28;93435;-74
2022/05/09 13:58:02;;;;;;;8.95;4.10;;;;;;;;;;5014895;28;92929;-75
2022/05/09 14:00:32;;;;;;;13.20;4.07;;;;;;;;;;5013729;28;92484;-72
2022/05/09 14:03:00;;;;;;;10.07;4.10;;;;;;;;;;5016375;28;93512;-74
2022/05/09 14:05:28;;;;;;;10.25;3.78;;;;;;;;;;5014744;28;93582;-74
2022/05/09 14:07:56;;;;;;;12.90;3.55;;;;;;;;;;5010005;28;92485;-73
2022/05/09 14:10:39;;;;;;;7.13;3.22;;;;;;;;;;5010610;28;94881;-73
2022/05/09 14:13:24;;;;;;;6.82;3.30;;;;;;;;;;5013968;28;93073;-75
2022/05/09 14:15:53;;;;;;;8.50;3.45;;;;;;;;;;5006236;28;92455;-75
2022/05/09 14:18:19;;;;;;;11.98;4.40;;;;;;;;;;5007026;28;92507;-74
2022/05/09 14:20:46;;;;;;;11.98;3.97;;;;;;;;;;5013862;28;94039;-74
2022/05/09 14:23:14;;;;;;;8.10;4.10;;;;;;;;;;5014633;28;94369;-73
2022/05/09 14:31:27;;;;;;;8.18;3.78;;;;;;;;;;5016062;28;92565;-73
2022/05/09 14:33:53;;;;;;;9.25;3.65;;;;;;;;;;5014620;28;93237;-73
2022/05/09 14:36:34;;;;;;;10.65;4.70;;;;;;;;;;5010717;28;95224;-73
2022/05/09 14:39:27;;;;;;;8.07;4.05;;;;;;;;;;5011175;28;96592;-73
2022/05/09 14:42:03;;;;;;;10.87;3.47;;;;;;;;;;4984793;28;93103;-72
2022/05/09 14:44:31;;;;;;;19.30;4.35;;;;;;;;;;5016105;28;92829;-73
2022/05/09 14:47:04;;;;;;;11.43;4.53;;;;;;;;;;5011656;28;93307;-72
2022/05/09 14:49:52;;;;;;;15.15;4.13;;;;;;;;;;5011364;28;93182;-72
2022/05/09 14:52:27;;;;;;;11.98;4.53;;;;;;;;;;5015905;28;92961;-73
2022/05/09 14:57:58;;;;;;;16.58;4.00;;;;;;;;;;5015701;28;92446;-73
2022/05/09 15:00:28;;;;;;;16.00;5.07;;;;;;;;;;5015707;28;94142;-74
2022/05/09 15:03:00;;;;;;;14.93;5.30;;;;;;;;;;5010147;28;96343;-74
2022/05/09 15:05:27;;;;;;;8.93;4.55;;;;;;;;;;5011742;28;92484;-75
2022/05/09 15:07:54;;;;;;;15.85;4.20;;;;;;;;;;5018192;28;95584;-75